Time;durP1;ratioP1;P1;durP2;ratioP2;P2;SDS_P1;SDS_P2;PMS_P1;PMS_P2;Temp;Humidity;BMP_temperature;BMP_pressure;BME280_temperature;BME280_humidity;BME280_pressure;Samples;Min_cycle;Max_cycle;Signal;HPM_P1;HPM_P2
2021/09/18 00:01:39;;;;;;;;;;;22.60;55.90;;;;;;5045348;28;83920;-50
2021/09/18 00:04:05;;;;;;;;;;;22.60;56.00;;;;;;5045632;28;83742;-48
2021/09/18 00:06:31;;;;;;;;;;;22.60;56.00;;;;;;5045159;28;82943;-49
2021/09/18 00:08:57;;;;;;;;;;;22.60;56.00;;;;;;5045616;28;83066;-49
2021/09/18 00:11:23;;;;;;;;;;;22.60;56.00;;;;;;5044743;28;83698;-50
2021/09/18 00:13:48;;;;;;;;;;;22.60;56.00;;;;;;5042214;28;83164;-49
2021/09/18 00:16:14;;;;;;;;;;;22.60;56.00;;;;;;5041507;28;83282;-49
2021/09/18 00:18:39;;;;;;;;;;;22.60;56.00;;;;;;5043587;28;82095;-49
2021/09/18 00:21:05;;;;;;;;;;;22.60;56.00;;;;;;5044291;28;82558;-49
2021/09/18 00:23:30;;;;;;;;;;;22.60;56.00;;;;;;5044588;28;82866;-49
2021/09/18 00:25:56;;;;;;;;;;;22.60;56.10;;;;;;5045483;28;82060;-49
2021/09/18 00:28:21;;;;;;;;;;;22.50;56.00;;;;;;5045413;28;82143;-50
2021/09/18 00:30:47;;;;;;;;;;;22.60;56.00;;;;;;5044204;28;83736;-49
2021/09/18 00:33:12;;;;;;;;;;;22.50;56.00;;;;;;5044314;28;81348;-48
2021/09/18 00:35:38;;;;;;;;;;;22.50;56.00;;;;;;5042251;28;83378;-49
2021/09/18 00:38:03;;;;;;;;;;;22.50;56.00;;;;;;5043762;28;82118;-49
2021/09/18 00:40:29;;;;;;;;;;;22.50;56.00;;;;;;5044213;28;83990;-49
2021/09/18 00:42:54;;;;;;;;;;;22.50;56.00;;;;;;5045238;28;83526;-52
2021/09/18 00:45:20;;;;;;;;;;;22.50;56.00;;;;;;5044439;28;83845;-50
2021/09/18 00:47:46;;;;;;;;;;;22.50;56.10;;;;;;5042684;28;83113;-49
2021/09/18 00:50:11;;;;;;;;;;;22.50;56.10;;;;;;5041409;28;82695;-49
2021/09/18 00:52:37;;;;;;;;;;;22.50;56.10;;;;;;5042765;28;82125;-49
2021/09/18 00:55:02;;;;;;;;;;;22.50;56.10;;;;;;5046382;28;82545;-50
2021/09/18 00:57:29;;;;;;;;;;;22.50;56.10;;;;;;5043877;28;81408;-49
2021/09/18 00:59:54;;;;;;;;;;;22.40;56.10;;;;;;5043927;28;82102;-50
2021/09/18 01:02:20;;;;;;;;;;;22.40;56.10;;;;;;5044802;28;83038;-51
2021/09/18 01:04:45;;;;;;;;;;;22.50;56.20;;;;;;5044082;28;83057;-51
2021/09/18 01:07:11;;;;;;;;;;;22.40;56.10;;;;;;5044311;28;83531;-48
2021/09/18 01:09:36;;;;;;;;;;;22.40;56.20;;;;;;5041803;28;83137;-49
2021/09/18 01:12:03;;;;;;;;;;;22.40;56.20;;;;;;5040365;28;82159;-50
2021/09/18 01:14:28;;;;;;;;;;;22.40;56.20;;;;;;5042118;28;82859;-49
2021/09/18 01:16:54;;;;;;;;;;;22.40;56.30;;;;;;5043738;28;83116;-49
2021/09/18 01:19:20;;;;;;;;;;;22.40;56.30;;;;;;5042453;28;82653;-49
2021/09/18 01:21:49;;;;;;;;;;;22.40;56.40;;;;;;5043742;28;84038;-51
2021/09/18 01:24:15;;;;;;;;;;;22.40;56.30;;;;;;5042518;28;83703;-49
2021/09/18 01:26:41;;;;;;;;;;;22.40;56.40;;;;;;5043178;28;83051;-48
2021/09/18 01:29:08;;;;;;;;;;;22.30;56.30;;;;;;5044207;28;84278;-50
2021/09/18 01:31:40;;;;;;;;;;;22.30;56.40;;;;;;5042416;28;82106;-51
2021/09/18 01:34:06;;;;;;;;;;;22.30;56.50;;;;;;5040702;28;82975;-49
2021/09/18 01:36:31;;;;;;;;;;;22.30;56.50;;;;;;5047832;28;82758;-50
2021/09/18 01:38:57;;;;;;;;;;;22.30;56.60;;;;;;5043081;28;82852;-49
2021/09/18 01:41:25;;;;;;;;;;;22.30;56.50;;;;;;5040137;28;83086;-49
2021/09/18 01:43:51;;;;;;;;;;;22.30;56.60;;;;;;5042143;28;82105;-50
2021/09/18 01:46:16;;;;;;;;;;;22.30;56.60;;;;;;5043889;28;81999;-50
2021/09/18 01:48:42;;;;;;;;;;;22.30;56.60;;;;;;5044464;28;82900;-51
2021/09/18 01:51:12;;;;;;;;;;;22.30;56.60;;;;;;5042408;28;82161;-49
2021/09/18 01:53:38;;;;;;;;;;;22.30;56.60;;;;;;5040061;28;83884;-50
2021/09/18 01:56:04;;;;;;;;;;;22.20;56.70;;;;;;5040903;28;82819;-51
2021/09/18 01:58:29;;;;;;;;;;;22.30;56.70;;;;;;5044860;28;82113;-49
2021/09/18 02:00:56;;;;;;;;;;;22.20;56.60;;;;;;5043016;28;84288;-49
2021/09/18 02:03:22;;;;;;;;;;;22.20;56.70;;;;;;5042343;28;82105;-49
2021/09/18 02:05:48;;;;;;;;;;;22.20;56.70;;;;;;5041727;28;82158;-49
2021/09/18 02:08:13;;;;;;;;;;;22.20;56.70;;;;;;5041380;28;83979;-49
2021/09/18 02:10:39;;;;;;;;;;;22.20;56.90;;;;;;5041627;28;81491;-49
2021/09/18 02:13:06;;;;;;;;;;;22.20;56.90;;;;;;5039833;28;82103;-48
2021/09/18 02:15:32;;;;;;;;;;;22.20;56.80;;;;;;5044412;28;83311;-50
2021/09/18 02:17:57;;;;;;;;;;;22.20;56.80;;;;;;5042569;28;83017;-50
2021/09/18 02:20:26;;;;;;;;;;;22.20;56.80;;;;;;5045884;28;85155;-51
2021/09/18 02:22:51;;;;;;;;;;;22.20;56.80;;;;;;5041990;28;82711;-50
2021/09/18 02:25:17;;;;;;;;;;;22.20;56.80;;;;;;5040709;28;83099;-49
2021/09/18 02:27:43;;;;;;;;;;;22.20;57.10;;;;;;5043474;28;84552;-52
2021/09/18 02:30:10;;;;;;;;;;;22.10;57.00;;;;;;5043661;27;82105;-49
2021/09/18 02:32:36;;;;;;;;;;;22.10;57.00;;;;;;5041020;28;82134;-49
2021/09/18 02:35:06;;;;;;;;;;;22.20;57.10;;;;;;5041714;28;83550;-49
2021/09/18 02:37:32;;;;;;;;;;;22.10;57.00;;;;;;5042298;28;82106;-49
2021/09/18 02:39:57;;;;;;;;;;;22.10;57.00;;;;;;5042884;28;82127;-49
2021/09/18 02:42:23;;;;;;;;;;;22.10;57.00;;;;;;5044034;28;85669;-49
2021/09/18 02:44:48;;;;;;;;;;;22.10;57.00;;;;;;5041478;28;83426;-51
2021/09/18 02:47:14;;;;;;;;;;;22.10;57.00;;;;;;5040546;28;83193;-49
2021/09/18 02:49:39;;;;;;;;;;;22.10;57.10;;;;;;5040388;28;82105;-49
2021/09/18 02:52:05;;;;;;;;;;;22.10;57.20;;;;;;5042914;28;83614;-49
2021/09/18 02:54:30;;;;;;;;;;;22.10;57.10;;;;;;5043622;28;83654;-50
2021/09/18 02:56:56;;;;;;;;;;;22.10;57.10;;;;;;5047011;28;82248;-49
2021/09/18 02:59:21;;;;;;;;;;;22.00;57.20;;;;;;5044863;28;82239;-49
2021/09/18 03:01:47;;;;;;;;;;;22.00;57.20;;;;;;5042450;28;83848;-50
2021/09/18 03:04:12;;;;;;;;;;;22.10;57.30;;;;;;5047067;28;83697;-49
2021/09/18 03:06:38;;;;;;;;;;;22.00;57.30;;;;;;5043244;28;84252;-49
2021/09/18 03:09:03;;;;;;;;;;;22.00;57.30;;;;;;5044237;28;82959;-50
2021/09/18 03:11:29;;;;;;;;;;;22.00;57.30;;;;;;5043849;28;83443;-49
2021/09/18 03:13:54;;;;;;;;;;;22.00;57.30;;;;;;5043488;28;83475;-48
2021/09/18 03:16:20;;;;;;;;;;;22.00;57.30;;;;;;5043634;28;83458;-51
2021/09/18 03:18:45;;;;;;;;;;;22.00;57.40;;;;;;5044301;28;82934;-50
2021/09/18 03:21:11;;;;;;;;;;;22.00;57.50;;;;;;5046442;28;83188;-49
2021/09/18 03:23:36;;;;;;;;;;;21.90;57.50;;;;;;5047931;28;81474;-49
2021/09/18 03:26:02;;;;;;;;;;;21.90;57.40;;;;;;5049687;28;83025;-48
2021/09/18 03:28:27;;;;;;;;;;;21.90;57.50;;;;;;5046569;28;82075;-49
2021/09/18 03:30:53;;;;;;;;;;;21.90;57.80;;;;;;5045746;28;83036;-49
2021/09/18 03:33:18;;;;;;;;;;;21.90;57.60;;;;;;5045013;28;82476;-49
2021/09/18 03:35:44;;;;;;;;;;;21.90;57.50;;;;;;5044708;28;82089;-50
2021/09/18 03:38:10;;;;;;;;;;;21.90;57.40;;;;;;5045077;27;83984;-49
2021/09/18 03:40:36;;;;;;;;;;;21.90;57.60;;;;;;5046358;28;82653;-50
2021/09/18 03:43:01;;;;;;;;;;;21.90;57.50;;;;;;5045325;28;82086;-50
2021/09/18 03:45:27;;;;;;;;;;;21.80;57.50;;;;;;5047217;28;84481;-49
2021/09/18 03:47:52;;;;;;;;;;;21.90;57.50;;;;;;5044433;28;81375;-48
2021/09/18 03:50:18;;;;;;;;;;;21.90;57.50;;;;;;5044394;28;82204;-48
2021/09/18 03:52:43;;;;;;;;;;;21.90;57.60;;;;;;5045041;28;82729;-49
2021/09/18 03:55:09;;;;;;;;;;;21.80;57.60;;;;;;5044048;28;83180;-49
2021/09/18 03:57:35;;;;;;;;;;;21.80;57.70;;;;;;5043359;28;85479;-48
2021/09/18 04:00:01;;;;;;;;;;;21.80;57.70;;;;;;5043276;28;82675;-48
2021/09/18 04:02:26;;;;;;;;;;;21.80;57.80;;;;;;5042319;28;82054;-50
2021/09/18 04:04:52;;;;;;;;;;;21.80;57.70;;;;;;5043067;28;82374;-50
2021/09/18 04:07:18;;;;;;;;;;;21.80;57.70;;;;;;5044873;28;82698;-48
2021/09/18 04:09:43;;;;;;;;;;;21.80;57.80;;;;;;5041530;28;83914;-49
2021/09/18 04:12:08;;;;;;;;;;;21.80;57.70;;;;;;5044133;28;83200;-49
2021/09/18 04:14:34;;;;;;;;;;;21.80;57.80;;;;;;5045974;28;83049;-49
2021/09/18 04:16:59;;;;;;;;;;;21.70;57.70;;;;;;5046188;28;82765;-50
2021/09/18 04:19:25;;;;;;;;;;;21.70;57.70;;;;;;5044695;28;83610;-49
2021/09/18 04:21:50;;;;;;;;;;;21.70;57.80;;;;;;5045506;28;82131;-49
2021/09/18 04:24:16;;;;;;;;;;;21.70;57.90;;;;;;5045621;28;82632;-49
2021/09/18 04:26:41;;;;;;;;;;;21.70;57.70;;;;;;5044705;28;84385;-48
2021/09/18 04:29:07;;;;;;;;;;;21.70;57.70;;;;;;5047924;28;83135;-50
2021/09/18 04:31:33;;;;;;;;;;;21.70;57.80;;;;;;5045792;28;82166;-50
2021/09/18 04:33:58;;;;;;;;;;;21.70;57.80;;;;;;5044838;28;82111;-49
2021/09/18 04:36:24;;;;;;;;;;;21.70;57.90;;;;;;5044932;28;82722;-48
2021/09/18 04:38:49;;;;;;;;;;;21.60;57.90;;;;;;5043370;28;83126;-51
2021/09/18 04:41:15;;;;;;;;;;;21.70;58.00;;;;;;5043777;28;82119;-51
2021/09/18 04:43:40;;;;;;;;;;;21.70;58.00;;;;;;5044275;28;83115;-49
2021/09/18 04:46:06;;;;;;;;;;;21.60;58.00;;;;;;5043859;28;84987;-48
2021/09/18 04:48:31;;;;;;;;;;;21.60;58.10;;;;;;5043711;28;82180;-49
2021/09/18 04:50:57;;;;;;;;;;;21.60;58.10;;;;;;5047285;28;83482;-50
2021/09/18 04:53:23;;;;;;;;;;;21.60;58.10;;;;;;5044405;28;82099;-48
2021/09/18 04:55:48;;;;;;;;;;;21.60;58.20;;;;;;5043447;28;82480;-49
2021/09/18 04:58:14;;;;;;;;;;;21.60;58.20;;;;;;5042261;28;84311;-49
2021/09/18 05:00:39;;;;;;;;;;;21.50;58.20;;;;;;5042800;28;81326;-48
2021/09/18 05:03:05;;;;;;;;;;;21.60;58.20;;;;;;5041978;28;82173;-48
2021/09/18 05:05:30;;;;;;;;;;;21.60;58.30;;;;;;5041137;28;83906;-51
2021/09/18 05:07:56;;;;;;;;;;;21.50;58.20;;;;;;5039922;28;83148;-51
2021/09/18 05:10:22;;;;;;;;;;;21.50;58.10;;;;;;5040982;28;82824;-49
2021/09/18 05:12:47;;;;;;;;;;;21.50;58.20;;;;;;5042632;28;83005;-48
2021/09/18 05:15:13;;;;;;;;;;;21.50;58.10;;;;;;5041925;28;83677;-49
2021/09/18 05:17:39;;;;;;;;;;;21.50;58.20;;;;;;5041592;28;83165;-50
2021/09/18 05:20:05;;;;;;;;;;;21.50;58.30;;;;;;5041340;28;82087;-48
2021/09/18 05:22:30;;;;;;;;;;;21.50;58.30;;;;;;5040818;28;83841;-48
2021/09/18 05:24:56;;;;;;;;;;;21.50;58.30;;;;;;5041141;28;82056;-49
2021/09/18 05:27:21;;;;;;;;;;;21.50;58.30;;;;;;5040973;28;83099;-49
2021/09/18 05:29:47;;;;;;;;;;;21.50;58.40;;;;;;5040730;28;82061;-48
2021/09/18 05:32:12;;;;;;;;;;;21.50;58.50;;;;;;5039995;28;85914;-48
2021/09/18 05:34:38;;;;;;;;;;;21.50;58.30;;;;;;5045624;28;83829;-51
2021/09/18 05:37:04;;;;;;;;;;;21.50;58.40;;;;;;5043915;28;84069;-52
2021/09/18 05:39:30;;;;;;;;;;;21.50;58.50;;;;;;5043575;28;82097;-48
2021/09/18 05:41:55;;;;;;;;;;;21.40;58.40;;;;;;5042694;28;82144;-48
2021/09/18 05:44:21;;;;;;;;;;;21.40;58.60;;;;;;5041900;28;82102;-54
2021/09/18 05:46:46;;;;;;;;;;;21.40;58.60;;;;;;5041704;28;82080;-52
2021/09/18 05:49:12;;;;;;;;;;;21.40;58.50;;;;;;5042297;28;83976;-49
2021/09/18 05:51:37;;;;;;;;;;;21.40;58.60;;;;;;5040784;28;83134;-51
2021/09/18 05:54:03;;;;;;;;;;;21.40;58.70;;;;;;5044271;28;82073;-51
2021/09/18 05:56:28;;;;;;;;;;;21.40;58.70;;;;;;5041107;28;84597;-49
2021/09/18 05:58:54;;;;;;;;;;;21.40;58.80;;;;;;5042582;28;82110;-48
2021/09/18 06:01:19;;;;;;;;;;;21.40;58.70;;;;;;5042855;28;82710;-52
2021/09/18 06:03:45;;;;;;;;;;;21.40;58.80;;;;;;5042646;28;83274;-49
2021/09/18 06:06:10;;;;;;;;;;;21.40;58.80;;;;;;5042158;28;82074;-49
2021/09/18 06:08:36;;;;;;;;;;;21.40;58.80;;;;;;5041497;28;82109;-49
2021/09/18 06:11:01;;;;;;;;;;;21.40;58.80;;;;;;5040228;28;84560;-48
2021/09/18 06:13:27;;;;;;;;;;;21.30;58.70;;;;;;5040206;28;81420;-48
2021/09/18 06:15:53;;;;;;;;;;;21.30;58.90;;;;;;5043653;28;82912;-49
2021/09/18 06:18:18;;;;;;;;;;;21.30;58.90;;;;;;5043048;28;83635;-48
2021/09/18 06:20:44;;;;;;;;;;;21.30;58.80;;;;;;5040610;28;84542;-49
2021/09/18 06:23:09;;;;;;;;;;;21.30;58.90;;;;;;5043836;28;83660;-52
2021/09/18 06:25:35;;;;;;;;;;;21.30;58.90;;;;;;5043023;28;82992;-48
2021/09/18 06:28:00;;;;;;;;;;;21.30;58.90;;;;;;5044453;28;83098;-49
2021/09/18 06:30:26;;;;;;;;;;;21.30;59.10;;;;;;5043677;28;84410;-50
2021/09/18 06:32:51;;;;;;;;;;;21.30;59.00;;;;;;5042675;28;82116;-52
2021/09/18 06:35:18;;;;;;;;;;;21.30;58.90;;;;;;5041847;28;82180;-50
2021/09/18 06:37:45;;;;;;;;;;;21.30;59.00;;;;;;5044421;28;82279;-50
2021/09/18 06:40:11;;;;;;;;;;;21.30;59.10;;;;;;5039372;28;82893;-49
2021/09/18 06:42:37;;;;;;;;;;;21.30;58.90;;;;;;5043228;28;82588;-49
2021/09/18 06:45:03;;;;;;;;;;;21.30;59.00;;;;;;5041688;28;83103;-48
2021/09/18 06:47:28;;;;;;;;;;;21.20;59.10;;;;;;5040973;28;86662;-49
2021/09/18 06:49:54;;;;;;;;;;;21.30;59.10;;;;;;5040354;28;84905;-49
2021/09/18 06:52:19;;;;;;;;;;;21.20;59.10;;;;;;5039658;28;82097;-49
2021/09/18 06:54:45;;;;;;;;;;;21.20;59.10;;;;;;5040057;28;82854;-49
2021/09/18 06:57:11;;;;;;;;;;;21.20;59.20;;;;;;5040901;28;83599;-49
2021/09/18 06:59:38;;;;;;;;;;;21.30;59.20;;;;;;5042908;28;82227;-48
2021/09/18 07:02:04;;;;;;;;;;;21.20;59.10;;;;;;5042619;28;83929;-50
2021/09/18 07:04:29;;;;;;;;;;;21.30;59.20;;;;;;5044177;28;82208;-49
2021/09/18 07:06:55;;;;;;;;;;;21.30;59.20;;;;;;5043279;28;82551;-49
2021/09/18 07:09:20;;;;;;;;;;;21.20;59.20;;;;;;5041797;28;83654;-49
2021/09/18 07:11:46;;;;;;;;;;;21.20;59.10;;;;;;5042259;28;82153;-49
2021/09/18 07:14:11;;;;;;;;;;;21.20;59.10;;;;;;5043666;28;82598;-49
2021/09/18 07:16:37;;;;;;;;;;;21.20;59.10;;;;;;5042838;28;82535;-49
2021/09/18 07:19:02;;;;;;;;;;;21.20;59.20;;;;;;5042167;28;82157;-49
2021/09/18 07:21:28;;;;;;;;;;;21.20;59.20;;;;;;5044157;28;82578;-49
2021/09/18 07:23:54;;;;;;;;;;;21.20;59.20;;;;;;5040748;28;82210;-49
2021/09/18 07:26:19;;;;;;;;;;;21.20;59.00;;;;;;5041293;28;83051;-49
2021/09/18 07:28:45;;;;;;;;;;;21.20;59.20;;;;;;5040447;28;82843;-48
2021/09/18 07:31:10;;;;;;;;;;;21.20;59.20;;;;;;5039978;28;82165;-49
2021/09/18 07:33:36;;;;;;;;;;;21.20;59.30;;;;;;5039898;28;83041;-49
2021/09/18 07:36:02;;;;;;;;;;;21.20;59.20;;;;;;5041569;27;84098;-49
2021/09/18 07:38:27;;;;;;;;;;;21.20;59.30;;;;;;5043502;28;82081;-49
2021/09/18 07:40:55;;;;;;;;;;;21.20;59.90;;;;;;5046925;28;82175;-48
2021/09/18 07:43:21;;;;;;;;;;;21.20;59.30;;;;;;5042227;28;83668;-49
2021/09/18 07:45:46;;;;;;;;;;;21.20;59.30;;;;;;5046995;28;82681;-50
2021/09/18 07:48:12;;;;;;;;;;;21.10;59.40;;;;;;5045136;28;82686;-51
2021/09/18 07:50:37;;;;;;;;;;;21.10;59.50;;;;;;5047679;28;82978;-48
2021/09/18 07:53:03;;;;;;;;;;;21.10;59.50;;;;;;5046298;28;82167;-49
2021/09/18 07:55:29;;;;;;;;;;;21.10;59.50;;;;;;5045347;28;84130;-49
2021/09/18 07:57:55;;;;;;;;;;;21.10;59.50;;;;;;5042895;28;83046;-48
2021/09/18 08:00:21;;;;;;;;;;;21.10;59.60;;;;;;5044431;28;83959;-49
2021/09/18 08:02:46;;;;;;;;;;;21.00;59.60;;;;;;5046425;28;82184;-48
2021/09/18 08:05:12;;;;;;;;;;;21.10;59.60;;;;;;5044290;28;82190;-48
2021/09/18 08:07:38;;;;;;;;;;;21.10;59.70;;;;;;5044530;28;83706;-49
2021/09/18 08:10:07;;;;;;;;;;;21.00;59.70;;;;;;5043139;28;82115;-48
2021/09/18 08:12:34;;;;;;;;;;;21.10;59.60;;;;;;5044294;28;83948;-49
2021/09/18 08:14:59;;;;;;;;;;;21.10;59.70;;;;;;5044283;28;81989;-49
2021/09/18 08:17:25;;;;;;;;;;;21.10;59.60;;;;;;5043531;28;82083;-49
2021/09/18 08:19:50;;;;;;;;;;;21.10;59.70;;;;;;5042808;28;82194;-48
2021/09/18 08:22:15;;;;;;;;;;;21.10;59.60;;;;;;5041217;28;84563;-48
2021/09/18 08:24:41;;;;;;;;;;;21.00;59.50;;;;;;5044153;28;82185;-48
2021/09/18 08:27:07;;;;;;;;;;;21.10;59.60;;;;;;5045787;28;83585;-49
2021/09/18 08:29:33;;;;;;;;;;;21.00;59.60;;;;;;5046130;28;82109;-49
2021/09/18 08:31:58;;;;;;;;;;;21.10;59.60;;;;;;5044490;28;83537;-48
2021/09/18 08:34:24;;;;;;;;;;;21.00;59.70;;;;;;5043523;28;83053;-48
2021/09/18 08:36:51;;;;;;;;;;;21.10;59.60;;;;;;5043151;28;82162;-49
2021/09/18 08:39:16;;;;;;;;;;;21.00;59.60;;;;;;5042664;28;83568;-48
2021/09/18 08:41:45;;;;;;;;;;;21.10;59.60;;;;;;5042362;28;82126;-49
2021/09/18 08:44:11;;;;;;;;;;;21.10;59.50;;;;;;5045819;28;82186;-49
2021/09/18 08:46:36;;;;;;;;;;;21.10;59.60;;;;;;5047230;28;83147;-48
2021/09/18 08:49:03;;;;;;;;;;;21.10;59.50;;;;;;5043573;28;82102;-48
2021/09/18 08:51:28;;;;;;;;;;;21.10;59.50;;;;;;5042152;28;82443;-48
2021/09/18 08:53:55;;;;;;;;;;;21.10;59.40;;;;;;5040729;28;83537;-49
2021/09/18 08:56:21;;;;;;;;;;;21.10;59.60;;;;;;5045031;28;83293;-48
2021/09/18 08:58:47;;;;;;;;;;;21.10;59.80;;;;;;5045425;28;84062;-50
2021/09/18 09:01:13;;;;;;;;;;;21.10;60.30;;;;;;5044139;28;82591;-49
2021/09/18 09:03:39;;;;;;;;;;;21.00;59.70;;;;;;5043063;28;81369;-49
2021/09/18 09:06:06;;;;;;;;;;;21.00;59.70;;;;;;5041836;28;82240;-48
2021/09/18 09:08:32;;;;;;;;;;;21.00;59.60;;;;;;5048366;28;83086;-52
2021/09/18 09:10:57;;;;;;;;;;;21.00;59.80;;;;;;5043643;28;84099;-49
2021/09/18 09:13:24;;;;;;;;;;;21.10;59.60;;;;;;5043324;28;83260;-48
2021/09/18 09:15:51;;;;;;;;;;;21.00;59.60;;;;;;5041653;28;82205;-49
2021/09/18 09:18:18;;;;;;;;;;;21.00;59.70;;;;;;5045544;28;82510;-51
2021/09/18 09:20:44;;;;;;;;;;;21.00;59.70;;;;;;5044235;28;83244;-49
2021/09/18 09:23:20;;;;;;;;;;;21.00;59.70;;;;;;5044545;28;82113;-50
2021/09/18 09:25:53;;;;;;;;;;;21.00;59.60;;;;;;5045032;28;83069;-52
2021/09/18 09:28:29;;;;;;;;;;;21.00;59.70;;;;;;5043433;28;84071;-48
2021/09/18 09:31:13;;;;;;;;;;;21.10;59.70;;;;;;5046828;28;82125;-53
2021/09/18 09:33:57;;;;;;;;;;;21.10;59.70;;;;;;5040139;28;84153;-52
2021/09/18 09:36:23;;;;;;;;;;;21.00;59.50;;;;;;5042756;27;83045;-50
2021/09/18 09:38:59;;;;;;;;;;;21.10;59.70;;;;;;5042549;28;82646;-49
2021/09/18 09:41:34;;;;;;;;;;;21.10;59.80;;;;;;5040710;28;82712;-50
2021/09/18 09:44:00;;;;;;;;;;;21.10;59.60;;;;;;5041479;28;82573;-49
2021/09/18 09:46:26;;;;;;;;;;;21.10;60.60;;;;;;5040868;28;83931;-51
2021/09/18 09:49:12;;;;;;;;;;;21.10;59.90;;;;;;5041035;28;83105;-51
2021/09/18 09:51:38;;;;;;;;;;;21.10;60.00;;;;;;5043490;28;82106;-49
2021/09/18 09:54:16;;;;;;;;;;;21.10;60.10;;;;;;5042566;28;83188;-49
2021/09/18 09:56:41;;;;;;;;;;;21.10;60.00;;;;;;5042138;28;82162;-48
2021/09/18 09:59:07;;;;;;;;;;;21.00;60.10;;;;;;5042502;28;82153;-51
2021/09/18 10:01:32;;;;;;;;;;;21.00;60.10;;;;;;5040944;28;84093;-51
2021/09/18 10:03:58;;;;;;;;;;;21.00;60.00;;;;;;5041729;28;82133;-49
2021/09/18 10:06:23;;;;;;;;;;;21.00;60.30;;;;;;5042125;28;82126;-49
2021/09/18 10:08:49;;;;;;;;;;;21.00;60.30;;;;;;5041166;28;83096;-50
2021/09/18 10:11:16;;;;;;;;;;;21.00;60.30;;;;;;5040630;28;82079;-51
2021/09/18 10:13:43;;;;;;;;;;;21.00;60.50;;;;;;5044839;28;84085;-52
2021/09/18 10:16:09;;;;;;;;;;;21.00;60.80;;;;;;5042447;28;82110;-50
2021/09/18 10:18:36;;;;;;;;;;;21.00;60.90;;;;;;5041576;28;83904;-48
2021/09/18 10:23:46;;;;;;;;;;;21.00;61.10;;;;;;5040372;28;82099;-50
2021/09/18 10:26:12;;;;;;;;;;;20.90;61.40;;;;;;5038934;28;84167;-50
2021/09/18 10:28:42;;;;;;;;;;;20.90;61.20;;;;;;5039255;28;82419;-51
2021/09/18 10:31:13;;;;;;;;;;;20.90;61.30;;;;;;5040280;28;82176;-55
2021/09/18 10:33:38;;;;;;;;;;;20.90;61.20;;;;;;5039619;28;83331;-50
2021/09/18 10:36:11;;;;;;;;;;;20.90;61.20;;;;;;5043915;28;83314;-51
2021/09/18 10:38:44;;;;;;;;;;;20.90;61.30;;;;;;5043410;28;83781;-49
2021/09/18 10:41:20;;;;;;;;;;;20.90;61.30;;;;;;5039858;28;83321;-50
2021/09/18 10:43:59;;;;;;;;;;;20.90;61.30;;;;;;5041365;28;83319;-49
2021/09/18 10:46:36;;;;;;;;;;;20.80;61.40;;;;;;5041571;28;83650;-50
2021/09/18 10:49:02;;;;;;;;;;;20.80;61.50;;;;;;5041845;28;83775;-50
2021/09/18 10:51:38;;;;;;;;;;;20.80;61.30;;;;;;5040671;28;83791;-50
2021/09/18 10:54:11;;;;;;;;;;;20.80;61.40;;;;;;5043642;28;83504;-49
2021/09/18 10:56:55;;;;;;;;;;;20.80;61.40;;;;;;5039870;28;83150;-49
2021/09/18 10:59:41;;;;;;;;;;;20.70;61.40;;;;;;5045477;27;82116;-49
2021/09/18 11:02:25;;;;;;;;;;;20.70;61.50;;;;;;5041745;27;82698;-49
2021/09/18 11:04:50;;;;;;;;;;;20.70;61.40;;;;;;5044249;27;82189;-50
2021/09/18 11:07:34;;;;;;;;;;;20.70;61.30;;;;;;5043425;28;82480;-50
2021/09/18 11:10:00;;;;;;;;;;;20.80;61.40;;;;;;5039436;27;83815;-50
2021/09/18 11:12:26;;;;;;;;;;;20.70;61.30;;;;;;5042417;28;83010;-51
2021/09/18 11:14:59;;;;;;;;;;;20.70;61.20;;;;;;5047367;28;83648;-50
2021/09/18 11:17:31;;;;;;;;;;;20.70;61.30;;;;;;5042129;28;85183;-51
2021/09/18 11:20:10;;;;;;;;;;;20.70;61.20;;;;;;5046269;28;82102;-51
2021/09/18 11:22:36;;;;;;;;;;;20.70;61.20;;;;;;5045510;28;82106;-51
2021/09/18 11:25:20;;;;;;;;;;;20.70;61.20;;;;;;5045289;28;84019;-50
2021/09/18 11:27:58;;;;;;;;;;;20.70;61.20;;;;;;5043185;27;83132;-49
2021/09/18 11:30:36;;;;;;;;;;;20.70;61.10;;;;;;5046341;28;83597;-50
2021/09/18 11:33:02;;;;;;;;;;;20.70;61.10;;;;;;5042374;28;82150;-52
2021/09/18 11:35:28;;;;;;;;;;;20.70;61.10;;;;;;5045869;28;82192;-51
2021/09/18 11:37:59;;;;;;;;;;;20.70;61.10;;;;;;5046895;28;83392;-51
2021/09/18 11:40:25;;;;;;;;;;;20.70;61.10;;;;;;5046603;28;82957;-53
2021/09/18 11:42:55;;;;;;;;;;;20.70;61.10;;;;;;5044913;28;83003;-50
2021/09/18 11:45:23;;;;;;;;;;;20.70;61.20;;;;;;5049455;28;83131;-52
2021/09/18 11:47:50;;;;;;;;;;;20.70;61.00;;;;;;5044232;28;83423;-51
2021/09/18 11:50:23;;;;;;;;;;;20.70;61.00;;;;;;5041665;28;83238;-49
2021/09/18 11:52:48;;;;;;;;;;;20.70;60.90;;;;;;5043957;28;82197;-50
2021/09/18 11:55:25;;;;;;;;;;;20.70;60.90;;;;;;5043475;28;82270;-50
2021/09/18 11:58:09;;;;;;;;;;;20.70;61.00;;;;;;5041659;28;85470;-51
2021/09/18 12:00:41;;;;;;;;;;;20.80;60.90;;;;;;5044622;27;81449;-50
2021/09/18 12:03:07;;;;;;;;;;;20.70;61.00;;;;;;5042463;28;82078;-51
2021/09/18 12:05:32;;;;;;;;;;;20.80;61.00;;;;;;5044212;28;83232;-50
2021/09/18 12:07:58;;;;;;;;;;;20.80;60.90;;;;;;5043236;28;84787;-51
2021/09/18 12:10:24;;;;;;;;;;;20.80;60.80;;;;;;5041865;28;84678;-50
2021/09/18 12:13:10;;;;;;;;;;;20.80;60.80;;;;;;5046533;28;83129;-49
2021/09/18 12:15:38;;;;;;;;;;;20.80;60.90;;;;;;5045595;28;82832;-50
2021/09/18 12:18:04;;;;;;;;;;;20.80;60.90;;;;;;5042032;28;82722;-50
2021/09/18 12:20:31;;;;;;;;;;;20.80;60.80;;;;;;5043735;28;82999;-49
2021/09/18 12:22:57;;;;;;;;;;;20.80;61.00;;;;;;5045477;27;83461;-50
2021/09/18 12:25:27;;;;;;;;;;;20.80;61.00;;;;;;5045748;28;82697;-51
2021/09/18 12:27:53;;;;;;;;;;;20.80;61.10;;;;;;5047786;28;82133;-49
2021/09/18 12:30:24;;;;;;;;;;;20.80;61.10;;;;;;5043278;28;82701;-49
2021/09/18 12:33:00;;;;;;;;;;;20.80;61.10;;;;;;5041611;28;83025;-50
2021/09/18 12:35:35;;;;;;;;;;;20.80;61.20;;;;;;5041030;28;84458;-50
2021/09/18 12:38:01;;;;;;;;;;;20.80;61.20;;;;;;5042088;28;83530;-49
2021/09/18 12:40:26;;;;;;;;;;;20.80;61.20;;;;;;5045571;28;83810;-50
2021/09/18 12:43:05;;;;;;;;;;;20.80;61.20;;;;;;5045724;28;82573;-50
2021/09/18 12:45:34;;;;;;;;;;;20.80;61.10;;;;;;5041191;28;82513;-50
2021/09/18 12:48:15;;;;;;;;;;;20.80;61.20;;;;;;5043176;28;82166;-49
2021/09/18 12:50:48;;;;;;;;;;;20.80;61.40;;;;;;5044807;28;84169;-50
2021/09/18 12:53:20;;;;;;;;;;;20.80;61.40;;;;;;5045689;28;82131;-49
2021/09/18 12:56:08;;;;;;;;;;;20.70;61.30;;;;;;5042953;28;82683;-49
2021/09/18 12:58:33;;;;;;;;;;;20.70;61.60;;;;;;5039858;28;85139;-49
2021/09/18 13:00:59;;;;;;;;;;;20.70;61.50;;;;;;5042482;28;83906;-49
2021/09/18 13:03:25;;;;;;;;;;;20.70;61.50;;;;;;5045483;28;82046;-51
2021/09/18 13:05:55;;;;;;;;;;;20.70;61.40;;;;;;5044915;28;83793;-49
2021/09/18 13:08:20;;;;;;;;;;;20.70;61.60;;;;;;5041628;28;82141;-48
2021/09/18 13:10:46;;;;;;;;;;;20.60;61.60;;;;;;5041136;28;82620;-49
2021/09/18 13:13:30;;;;;;;;;;;20.70;61.40;;;;;;5043203;28;83747;-50
2021/09/18 13:15:59;;;;;;;;;;;20.70;61.40;;;;;;5041958;27;81863;-51
2021/09/18 13:18:26;;;;;;;;;;;20.60;61.40;;;;;;5042562;28;83313;-51
2021/09/18 13:20:51;;;;;;;;;;;20.60;61.50;;;;;;5043142;28;82218;-49
2021/09/18 13:23:17;;;;;;;;;;;20.60;61.50;;;;;;5043672;28;83045;-50
2021/09/18 13:25:42;;;;;;;;;;;20.60;61.50;;;;;;5043912;28;83903;-51
2021/09/18 13:28:08;;;;;;;;;;;20.60;61.50;;;;;;5043576;28;82099;-49
2021/09/18 13:30:33;;;;;;;;;;;20.70;61.70;;;;;;5042491;28;82749;-50
2021/09/18 13:32:59;;;;;;;;;;;20.60;61.50;;;;;;5041551;28;83180;-49
2021/09/18 13:35:24;;;;;;;;;;;20.60;61.50;;;;;;5042712;28;82082;-49
2021/09/18 13:37:50;;;;;;;;;;;20.60;61.60;;;;;;5040381;28;82684;-49
2021/09/18 13:40:15;;;;;;;;;;;20.60;61.60;;;;;;5041343;28;82926;-49
2021/09/18 13:42:41;;;;;;;;;;;20.60;61.60;;;;;;5040437;28;82137;-49
2021/09/18 13:45:07;;;;;;;;;;;20.60;61.50;;;;;;5041017;28;82276;-50
2021/09/18 13:47:32;;;;;;;;;;;20.60;61.50;;;;;;5040855;28;83141;-50
2021/09/18 13:49:59;;;;;;;;;;;20.60;61.30;;;;;;5042197;28;83700;-49
2021/09/18 13:52:25;;;;;;;;;;;20.60;61.30;;;;;;5040781;28;82974;-50
2021/09/18 13:54:50;;;;;;;;;;;20.60;61.30;;;;;;5039950;28;82084;-49
2021/09/18 13:57:16;;;;;;;;;;;20.70;61.40;;;;;;5042697;28;83720;-48
2021/09/18 13:59:41;;;;;;;;;;;20.60;61.40;;;;;;5039747;28;83214;-50
2021/09/18 14:02:10;;;;;;;;;;;20.60;61.50;;;;;;5042562;28;83818;-49
2021/09/18 14:04:36;;;;;;;;;;;20.60;61.50;;;;;;5041532;28;81379;-49
2021/09/18 14:07:01;;;;;;;;;;;20.60;61.50;;;;;;5039638;28;83759;-50
2021/09/18 14:09:27;;;;;;;;;;;20.70;61.60;;;;;;5043666;28;83522;-53
2021/09/18 14:11:53;;;;;;;;;;;20.60;61.60;;;;;;5041676;28;85064;-50
2021/09/18 14:14:18;;;;;;;;;;;20.60;61.60;;;;;;5040027;28;82149;-50
2021/09/18 14:16:48;;;;;;;;;;;20.60;61.60;;;;;;5042780;28;82094;-50
2021/09/18 14:19:13;;;;;;;;;;;20.60;61.60;;;;;;5040895;28;82055;-49